Terminal Aerodrome Forecast
Issued by NWS Melbourne, FL

Home | Current Version | Previous Version | Text Only | Print | Product List | Glossary On
Versions: 1 2 3 4 5 6 7 8 9 10 11 12 13 14 15 16 17 18 19
000
FTUS42 KMLB 302009 AAB
TAFVRB
TAF AMD
KVRB 302009Z 3020/3118 09006KT P6SM VCTS SCT040CB BKN060
      TEMPO 3020/3022 VRB14G28KT 1SM +TSRA BKN020CB
     FM310000 25005KT P6SM SCT035 BKN250
     FM311400 23009KT P6SM SCT020 SCT250=

USA.gov is the U.S. government's official web portal to all federal, state and local government web resources and services.